Matoaka, West Virginia
Current Conditions -  °F | °C
As of 2:52 PM on Thursday 18 Dec 2014 (Local Time) from KBLF Reporting Station
Overcast Overcast  
Wind Chill: 30°   Ceiling: 7500
Heat Index: 37°   Visibility: 10mi
Dew Point: 17°   Wind: 9mph
Humidity: 44%   Direction: 270°W
Pressure: 30.05"   Gusts: NA
Location:  37.42°N, 81.24°W
Report Text: KBLF 181952Z AUTO 27008KT 10SM OVC075 03/M08 A3005 RMK AO2 SLP190 T00281083
Loading
Personal Weather Stations






























Interactive Weather Map New forecast layout! Learn more

10-Day Weather Forecast

Advertisements
Track Severe Weather on mobile